sensor_id;sensor_type;location;lat;lon;timestamp;P1;durP1;ratioP1;P2;durP2;ratioP2
11829;SDS011;5972;42.134;24.718;2022-07-23T00:01:10;11.38;;;7.38;;
11829;SDS011;5972;42.134;24.718;2022-07-23T00:03:37;15.38;;;6.15;;
11829;SDS011;5972;42.134;24.718;2022-07-23T00:06:04;11.48;;;5.63;;
11829;SDS011;5972;42.134;24.718;2022-07-23T00:08:31;15.18;;;6.40;;
11829;SDS011;5972;42.134;24.718;2022-07-23T00:10:58;10.63;;;6.55;;
11829;SDS011;5972;42.134;24.718;2022-07-23T00:13:25;13.43;;;6.72;;
11829;SDS011;5972;42.134;24.718;2022-07-23T00:15:54;12.75;;;6.35;;
11829;SDS011;5972;42.134;24.718;2022-07-23T00:18:21;10.85;;;5.93;;
11829;SDS011;5972;42.134;24.718;2022-07-23T00:20:48;12.80;;;6.53;;
11829;SDS011;5972;42.134;24.718;2022-07-23T00:23:16;12.35;;;6.30;;
11829;SDS011;5972;42.134;24.718;2022-07-23T00:25:42;14.30;;;6.32;;
11829;SDS011;5972;42.134;24.718;2022-07-23T00:28:10;9.82;;;6.88;;
11829;SDS011;5972;42.134;24.718;2022-07-23T00:30:37;10.10;;;7.05;;
11829;SDS011;5972;42.134;24.718;2022-07-23T00:33:06;13.93;;;6.60;;
11829;SDS011;5972;42.134;24.718;2022-07-23T00:35:34;10.45;;;5.78;;
11829;SDS011;5972;42.134;24.718;2022-07-23T00:38:05;10.98;;;5.75;;
11829;SDS011;5972;42.134;24.718;2022-07-23T00:40:33;8.55;;;6.10;;
11829;SDS011;5972;42.134;24.718;2022-07-23T00:43:00;10.32;;;6.00;;
11829;SDS011;5972;42.134;24.718;2022-07-23T00:45:28;10.18;;;6.20;;
11829;SDS011;5972;42.134;24.718;2022-07-23T00:47:55;13.80;;;6.68;;
11829;SDS011;5972;42.134;24.718;2022-07-23T00:50:23;9.95;;;5.97;;
11829;SDS011;5972;42.134;24.718;2022-07-23T00:52:50;12.52;;;6.40;;
11829;SDS011;5972;42.134;24.718;2022-07-23T00:55:19;13.05;;;6.55;;
11829;SDS011;5972;42.134;24.718;2022-07-23T00:57:45;12.27;;;6.25;;
11829;SDS011;5972;42.134;24.718;2022-07-23T01:00:14;16.10;;;5.82;;
11829;SDS011;5972;42.134;24.718;2022-07-23T01:02:41;10.25;;;5.68;;
11829;SDS011;5972;42.134;24.718;2022-07-23T01:05:09;9.60;;;6.15;;
11829;SDS011;5972;42.134;24.718;2022-07-23T01:07:37;12.18;;;6.15;;
11829;SDS011;5972;42.134;24.718;2022-07-23T01:10:05;12.85;;;6.30;;
11829;SDS011;5972;42.134;24.718;2022-07-23T01:12:53;12.25;;;6.25;;
11829;SDS011;5972;42.134;24.718;2022-07-23T01:15:21;10.60;;;6.53;;
11829;SDS011;5972;42.134;24.718;2022-07-23T01:17:48;12.13;;;6.55;;
11829;SDS011;5972;42.134;24.718;2022-07-23T01:20:15;10.27;;;7.38;;
11829;SDS011;5972;42.134;24.718;2022-07-23T01:22:43;19.27;;;7.00;;
11829;SDS011;5972;42.134;24.718;2022-07-23T01:25:10;9.80;;;7.55;;
11829;SDS011;5972;42.134;24.718;2022-07-23T01:27:37;14.13;;;8.38;;
11829;SDS011;5972;42.134;24.718;2022-07-23T01:30:04;11.07;;;8.85;;
11829;SDS011;5972;42.134;24.718;2022-07-23T01:32:32;13.55;;;9.35;;
11829;SDS011;5972;42.134;24.718;2022-07-23T01:34:59;13.82;;;9.55;;
11829;SDS011;5972;42.134;24.718;2022-07-23T01:37:26;22.00;;;10.85;;
11829;SDS011;5972;42.134;24.718;2022-07-23T01:39:54;15.38;;;9.57;;
11829;SDS011;5972;42.134;24.718;2022-07-23T01:42:21;15.52;;;10.68;;
11829;SDS011;5972;42.134;24.718;2022-07-23T01:44:48;13.48;;;10.13;;
11829;SDS011;5972;42.134;24.718;2022-07-23T01:47:15;14.50;;;10.80;;
11829;SDS011;5972;42.134;24.718;2022-07-23T01:49:42;13.63;;;10.35;;
11829;SDS011;5972;42.134;24.718;2022-07-23T01:52:09;12.90;;;10.32;;
11829;SDS011;5972;42.134;24.718;2022-07-23T01:54:37;17.08;;;10.82;;
11829;SDS011;5972;42.134;24.718;2022-07-23T01:57:06;21.15;;;10.60;;
11829;SDS011;5972;42.134;24.718;2022-07-23T01:59:33;17.67;;;9.68;;
11829;SDS011;5972;42.134;24.718;2022-07-23T02:02:01;15.63;;;10.07;;
11829;SDS011;5972;42.134;24.718;2022-07-23T02:04:28;17.20;;;10.82;;
11829;SDS011;5972;42.134;24.718;2022-07-23T02:06:55;15.57;;;11.05;;
11829;SDS011;5972;42.134;24.718;2022-07-23T02:09:22;17.42;;;11.50;;
11829;SDS011;5972;42.134;24.718;2022-07-23T02:11:49;16.92;;;11.43;;
11829;SDS011;5972;42.134;24.718;2022-07-23T02:14:17;14.43;;;10.65;;
11829;SDS011;5972;42.134;24.718;2022-07-23T02:16:44;16.00;;;10.40;;
11829;SDS011;5972;42.134;24.718;2022-07-23T02:19:11;16.20;;;11.13;;
11829;SDS011;5972;42.134;24.718;2022-07-23T02:21:38;17.75;;;10.60;;
11829;SDS011;5972;42.134;24.718;2022-07-23T02:24:05;18.15;;;10.55;;
11829;SDS011;5972;42.134;24.718;2022-07-23T02:26:32;18.35;;;10.77;;
11829;SDS011;5972;42.134;24.718;2022-07-23T02:29:00;16.10;;;10.70;;
11829;SDS011;5972;42.134;24.718;2022-07-23T02:31:29;15.40;;;10.85;;
11829;SDS011;5972;42.134;24.718;2022-07-23T02:33:56;12.80;;;9.68;;
11829;SDS011;5972;42.134;24.718;2022-07-23T02:36:23;12.25;;;9.48;;
11829;SDS011;5972;42.134;24.718;2022-07-23T02:38:50;14.18;;;9.23;;
11829;SDS011;5972;42.134;24.718;2022-07-23T02:41:16;13.80;;;8.75;;
11829;SDS011;5972;42.134;24.718;2022-07-23T02:43:43;13.52;;;9.73;;
11829;SDS011;5972;42.134;24.718;2022-07-23T02:46:10;12.80;;;8.55;;
11829;SDS011;5972;42.134;24.718;2022-07-23T02:48:38;18.70;;;8.77;;
11829;SDS011;5972;42.134;24.718;2022-07-23T02:51:05;13.35;;;9.05;;
11829;SDS011;5972;42.134;24.718;2022-07-23T02:53:32;14.13;;;9.52;;
11829;SDS011;5972;42.134;24.718;2022-07-23T02:55:59;13.13;;;9.07;;
11829;SDS011;5972;42.134;24.718;2022-07-23T02:58:26;9.93;;;8.20;;
11829;SDS011;5972;42.134;24.718;2022-07-23T03:00:53;13.90;;;8.55;;
11829;SDS011;5972;42.134;24.718;2022-07-23T03:03:20;13.15;;;8.25;;
11829;SDS011;5972;42.134;24.718;2022-07-23T03:05:48;17.05;;;8.27;;
11829;SDS011;5972;42.134;24.718;2022-07-23T03:08:15;13.27;;;8.32;;
11829;SDS011;5972;42.134;24.718;2022-07-23T03:10:42;9.20;;;7.82;;
11829;SDS011;5972;42.134;24.718;2022-07-23T03:13:08;11.77;;;7.35;;
11829;SDS011;5972;42.134;24.718;2022-07-23T03:15:35;10.77;;;7.30;;
11829;SDS011;5972;42.134;24.718;2022-07-23T03:18:02;17.38;;;7.72;;
11829;SDS011;5972;42.134;24.718;2022-07-23T03:20:29;13.25;;;7.13;;
11829;SDS011;5972;42.134;24.718;2022-07-23T03:22:57;11.68;;;7.10;;
11829;SDS011;5972;42.134;24.718;2022-07-23T03:25:24;9.30;;;7.38;;
11829;SDS011;5972;42.134;24.718;2022-07-23T03:27:51;13.48;;;7.88;;
11829;SDS011;5972;42.134;24.718;2022-07-23T03:30:18;10.23;;;8.25;;
11829;SDS011;5972;42.134;24.718;2022-07-23T03:32:45;11.15;;;8.02;;
11829;SDS011;5972;42.134;24.718;2022-07-23T03:35:12;13.43;;;7.68;;
11829;SDS011;5972;42.134;24.718;2022-07-23T03:37:39;15.27;;;7.82;;
11829;SDS011;5972;42.134;24.718;2022-07-23T03:40:07;13.32;;;7.63;;
11829;SDS011;5972;42.134;24.718;2022-07-23T03:42:35;21.02;;;7.55;;
11829;SDS011;5972;42.134;24.718;2022-07-23T03:45:03;13.32;;;7.63;;
11829;SDS011;5972;42.134;24.718;2022-07-23T03:47:31;18.15;;;7.85;;
11829;SDS011;5972;42.134;24.718;2022-07-23T03:49:58;14.80;;;7.30;;
11829;SDS011;5972;42.134;24.718;2022-07-23T03:52:24;16.63;;;7.40;;
11829;SDS011;5972;42.134;24.718;2022-07-23T03:54:51;13.38;;;7.15;;
11829;SDS011;5972;42.134;24.718;2022-07-23T03:57:19;14.00;;;7.85;;
11829;SDS011;5972;42.134;24.718;2022-07-23T03:59:46;13.57;;;7.13;;
11829;SDS011;5972;42.134;24.718;2022-07-23T04:02:13;11.35;;;6.72;;
11829;SDS011;5972;42.134;24.718;2022-07-23T04:04:40;9.10;;;6.63;;
11829;SDS011;5972;42.134;24.718;2022-07-23T04:07:07;15.32;;;6.75;;
11829;SDS011;5972;42.134;24.718;2022-07-23T04:09:34;11.80;;;6.80;;
11829;SDS011;5972;42.134;24.718;2022-07-23T04:12:01;13.85;;;7.00;;
11829;SDS011;5972;42.134;24.718;2022-07-23T04:14:29;8.73;;;6.90;;
11829;SDS011;5972;42.134;24.718;2022-07-23T04:16:56;14.10;;;6.68;;
11829;SDS011;5972;42.134;24.718;2022-07-23T04:19:22;13.57;;;6.75;;
11829;SDS011;5972;42.134;24.718;2022-07-23T04:21:50;13.18;;;6.72;;
11829;SDS011;5972;42.134;24.718;2022-07-23T04:24:16;14.25;;;6.63;;
11829;SDS011;5972;42.134;24.718;2022-07-23T04:26:43;8.05;;;6.28;;
11829;SDS011;5972;42.134;24.718;2022-07-23T04:29:10;7.85;;;6.97;;
11829;SDS011;5972;42.134;24.718;2022-07-23T04:31:39;14.13;;;7.88;;
11829;SDS011;5972;42.134;24.718;2022-07-23T04:34:06;11.68;;;8.00;;
11829;SDS011;5972;42.134;24.718;2022-07-23T04:36:33;13.00;;;7.63;;
11829;SDS011;5972;42.134;24.718;2022-07-23T04:39:00;15.82;;;7.97;;
11829;SDS011;5972;42.134;24.718;2022-07-23T04:41:27;13.43;;;8.40;;
11829;SDS011;5972;42.134;24.718;2022-07-23T04:43:53;12.13;;;8.25;;
11829;SDS011;5972;42.134;24.718;2022-07-23T04:46:20;15.65;;;8.95;;
11829;SDS011;5972;42.134;24.718;2022-07-23T04:48:48;18.38;;;9.45;;
11829;SDS011;5972;42.134;24.718;2022-07-23T04:51:15;13.07;;;8.80;;
11829;SDS011;5972;42.134;24.718;2022-07-23T04:53:42;13.55;;;9.45;;
11829;SDS011;5972;42.134;24.718;2022-07-23T04:56:09;11.13;;;8.85;;
11829;SDS011;5972;42.134;24.718;2022-07-23T04:58:36;15.23;;;8.95;;
11829;SDS011;5972;42.134;24.718;2022-07-23T05:01:03;17.17;;;9.05;;
11829;SDS011;5972;42.134;24.718;2022-07-23T05:03:30;22.23;;;9.15;;
11829;SDS011;5972;42.134;24.718;2022-07-23T05:05:58;16.27;;;9.82;;
11829;SDS011;5972;42.134;24.718;2022-07-23T05:08:25;16.73;;;9.27;;
11829;SDS011;5972;42.134;24.718;2022-07-23T05:10:52;15.45;;;9.38;;
11829;SDS011;5972;42.134;24.718;2022-07-23T05:13:19;15.75;;;9.35;;
11829;SDS011;5972;42.134;24.718;2022-07-23T05:15:46;17.73;;;9.43;;
11829;SDS011;5972;42.134;24.718;2022-07-23T05:18:13;15.80;;;9.25;;
11829;SDS011;5972;42.134;24.718;2022-07-23T05:20:40;14.82;;;9.23;;
11829;SDS011;5972;42.134;24.718;2022-07-23T05:23:08;20.75;;;9.30;;
11829;SDS011;5972;42.134;24.718;2022-07-23T05:25:35;22.98;;;9.30;;
11829;SDS011;5972;42.134;24.718;2022-07-23T05:28:02;14.10;;;8.95;;
11829;SDS011;5972;42.134;24.718;2022-07-23T05:30:29;13.50;;;8.90;;
11829;SDS011;5972;42.134;24.718;2022-07-23T05:32:56;16.92;;;9.15;;
11829;SDS011;5972;42.134;24.718;2022-07-23T05:35:23;17.45;;;8.80;;
11829;SDS011;5972;42.134;24.718;2022-07-23T05:37:50;13.82;;;8.07;;
11829;SDS011;5972;42.134;24.718;2022-07-23T05:40:19;10.13;;;7.78;;
11829;SDS011;5972;42.134;24.718;2022-07-23T05:42:46;14.27;;;7.60;;
11829;SDS011;5972;42.134;24.718;2022-07-23T05:45:13;11.50;;;7.97;;
11829;SDS011;5972;42.134;24.718;2022-07-23T05:47:40;16.92;;;8.10;;
11829;SDS011;5972;42.134;24.718;2022-07-23T05:50:08;13.95;;;8.40;;
11829;SDS011;5972;42.134;24.718;2022-07-23T05:52:36;16.63;;;8.35;;
11829;SDS011;5972;42.134;24.718;2022-07-23T05:55:03;15.57;;;7.50;;
11829;SDS011;5972;42.134;24.718;2022-07-23T05:57:32;12.45;;;7.85;;
11829;SDS011;5972;42.134;24.718;2022-07-23T05:59:59;14.52;;;7.60;;
11829;SDS011;5972;42.134;24.718;2022-07-23T06:02:26;12.18;;;7.53;;
11829;SDS011;5972;42.134;24.718;2022-07-23T06:04:53;11.70;;;7.90;;
11829;SDS011;5972;42.134;24.718;2022-07-23T06:07:20;15.40;;;8.00;;
11829;SDS011;5972;42.134;24.718;2022-07-23T06:09:47;14.90;;;7.93;;
11829;SDS011;5972;42.134;24.718;2022-07-23T06:12:14;16.77;;;7.55;;
11829;SDS011;5972;42.134;24.718;2022-07-23T06:14:42;9.43;;;7.50;;
11829;SDS011;5972;42.134;24.718;2022-07-23T06:17:09;14.43;;;7.03;;
11829;SDS011;5972;42.134;24.718;2022-07-23T06:19:36;18.70;;;6.40;;
11829;SDS011;5972;42.134;24.718;2022-07-23T06:22:03;9.15;;;5.88;;
11829;SDS011;5972;42.134;24.718;2022-07-23T06:24:30;11.95;;;6.45;;
11829;SDS011;5972;42.134;24.718;2022-07-23T06:26:57;8.98;;;5.70;;
11829;SDS011;5972;42.134;24.718;2022-07-23T06:29:24;9.98;;;5.75;;
11829;SDS011;5972;42.134;24.718;2022-07-23T06:31:52;8.52;;;5.72;;
11829;SDS011;5972;42.134;24.718;2022-07-23T06:34:19;7.50;;;5.05;;
11829;SDS011;5972;42.134;24.718;2022-07-23T06:36:45;9.68;;;5.32;;
11829;SDS011;5972;42.134;24.718;2022-07-23T06:39:12;15.07;;;5.60;;
11829;SDS011;5972;42.134;24.718;2022-07-23T06:41:39;7.63;;;5.50;;
11829;SDS011;5972;42.134;24.718;2022-07-23T06:44:07;14.82;;;5.80;;
11829;SDS011;5972;42.134;24.718;2022-07-23T06:46:34;15.23;;;5.40;;
11829;SDS011;5972;42.134;24.718;2022-07-23T06:49:02;10.52;;;5.00;;
11829;SDS011;5972;42.134;24.718;2022-07-23T06:51:30;7.18;;;5.07;;
11829;SDS011;5972;42.134;24.718;2022-07-23T06:53:57;10.52;;;5.40;;
11829;SDS011;5972;42.134;24.718;2022-07-23T06:56:24;7.50;;;5.25;;
11829;SDS011;5972;42.134;24.718;2022-07-23T06:58:50;14.73;;;5.00;;
11829;SDS011;5972;42.134;24.718;2022-07-23T07:01:17;9.52;;;5.22;;
11829;SDS011;5972;42.134;24.718;2022-07-23T07:03:44;7.75;;;5.10;;
11829;SDS011;5972;42.134;24.718;2022-07-23T07:06:13;8.30;;;4.97;;
11829;SDS011;5972;42.134;24.718;2022-07-23T07:08:40;8.55;;;5.20;;
11829;SDS011;5972;42.134;24.718;2022-07-23T07:11:08;10.43;;;5.22;;
11829;SDS011;5972;42.134;24.718;2022-07-23T07:13:35;15.88;;;5.32;;
11829;SDS011;5972;42.134;24.718;2022-07-23T07:16:02;12.02;;;5.35;;
11829;SDS011;5972;42.134;24.718;2022-07-23T07:18:29;8.80;;;5.22;;
11829;SDS011;5972;42.134;24.718;2022-07-23T07:20:56;9.93;;;4.78;;
11829;SDS011;5972;42.134;24.718;2022-07-23T07:23:24;11.00;;;5.30;;
11829;SDS011;5972;42.134;24.718;2022-07-23T07:25:51;8.32;;;4.88;;
11829;SDS011;5972;42.134;24.718;2022-07-23T07:28:18;9.27;;;5.20;;
11829;SDS011;5972;42.134;24.718;2022-07-23T07:30:45;16.45;;;5.35;;
11829;SDS011;5972;42.134;24.718;2022-07-23T07:33:12;9.73;;;4.82;;
11829;SDS011;5972;42.134;24.718;2022-07-23T07:35:39;9.10;;;5.10;;
11829;SDS011;5972;42.134;24.718;2022-07-23T07:38:06;12.75;;;4.88;;
11829;SDS011;5972;42.134;24.718;2022-07-23T07:40:34;9.93;;;4.95;;
11829;SDS011;5972;42.134;24.718;2022-07-23T07:43:01;9.80;;;5.25;;
11829;SDS011;5972;42.134;24.718;2022-07-23T07:45:28;11.00;;;5.25;;
11829;SDS011;5972;42.134;24.718;2022-07-23T07:47:55;12.50;;;4.80;;
11829;SDS011;5972;42.134;24.718;2022-07-23T07:50:23;9.88;;;5.05;;
11829;SDS011;5972;42.134;24.718;2022-07-23T07:52:51;11.70;;;4.43;;
11829;SDS011;5972;42.134;24.718;2022-07-23T07:55:18;66.15;;;7.53;;
11829;SDS011;5972;42.134;24.718;2022-07-23T07:57:46;9.15;;;4.07;;
11829;SDS011;5972;42.134;24.718;2022-07-23T08:00:13;5.43;;;4.80;;
11829;SDS011;5972;42.134;24.718;2022-07-23T08:02:41;10.68;;;4.60;;
11829;SDS011;5972;42.134;24.718;2022-07-23T08:05:10;8.75;;;4.43;;
11829;SDS011;5972;42.134;24.718;2022-07-23T08:07:36;11.05;;;4.45;;
11829;SDS011;5972;42.134;24.718;2022-07-23T08:10:05;10.93;;;4.20;;
11829;SDS011;5972;42.134;24.718;2022-07-23T08:12:40;9.38;;;4.78;;
11829;SDS011;5972;42.134;24.718;2022-07-23T08:15:11;8.75;;;4.40;;
11829;SDS011;5972;42.134;24.718;2022-07-23T08:17:39;10.00;;;4.75;;
11829;SDS011;5972;42.134;24.718;2022-07-23T08:20:07;16.90;;;4.70;;
11829;SDS011;5972;42.134;24.718;2022-07-23T08:22:46;8.07;;;4.45;;
11829;SDS011;5972;42.134;24.718;2022-07-23T08:25:14;13.48;;;4.78;;
11829;SDS011;5972;42.134;24.718;2022-07-23T08:27:42;8.65;;;4.28;;
11829;SDS011;5972;42.134;24.718;2022-07-23T08:30:10;9.60;;;4.68;;
11829;SDS011;5972;42.134;24.718;2022-07-23T08:32:48;6.18;;;4.20;;
11829;SDS011;5972;42.134;24.718;2022-07-23T08:35:15;8.27;;;4.45;;
11829;SDS011;5972;42.134;24.718;2022-07-23T08:37:46;7.78;;;4.25;;
11829;SDS011;5972;42.134;24.718;2022-07-23T08:40:13;8.50;;;4.72;;
11829;SDS011;5972;42.134;24.718;2022-07-23T08:42:40;8.65;;;4.47;;
